Latest Weather Observations for Charlton

IDV60801

Issued at 2:31 pm EDT Monday 22 December 2014 (issued every 30 minutes, with the page automatically refreshed every 10 minutes)

About weather observations | Map of weather stations | Latest weather observations for VIC | Other Formats
Station Details ID: 080128 Name: CHARLTON Lat: -36.28 Lon: 143.33 Height: 131.7 m
Data from the previous 72 hours. | See also: Recent months at Charlton
Date/Time
EDT
Temp
°C
App
Temp
°C
Dew
Point
Rel
Hum
%
Delta-T
°C
Wind Press
QNH
hPa
Press
MSL
hPa
Rain
since 9 am
mm
Dir
 
Spd
km/h
Gust
km/h
Spd
kts
Gust
kts
22/02:30pm 34.8 30.3 2.3 13 16.8 N 15 20 8 11 1006.3 1005.8 0.0
22/02:00pm 35.3 30.9 2.7 13 17.0 NNE 15 30 8 16 1006.8 1006.3 0.0
22/01:30pm 35.5 31.1 2.9 13 17.0 NNE 15 28 8 15 1007.4 1007.0 0.0
22/01:00pm 34.5 30.2 3.1 14 16.4 NNE 15 26 8 14 1008.0 1007.6 0.0
22/12:30pm 33.9 28.9 4.6 16 15.6 NE 20 32 11 17 1008.5 1008.1 0.0
22/12:00pm 32.9 29.4 7.0 20 14.3 NE 15 20 8 11 1008.8 1008.4 0.0
22/11:30am 32.4 28.2 7.3 21 13.8 NE 19 28 10 15 1008.9 1008.5 0.0
22/11:00am 30.9 27.1 9.2 26 12.2 ENE 19 26 10 14 1009.3 1008.9 0.0
22/10:30am 28.8 25.7 9.0 29 11.0 NE 15 22 8 12 1009.9 1009.5 0.0
22/10:00am 29.0 25.3 8.1 27 11.5 NE 17 32 9 17 1009.9 1009.5 0.0
22/09:30am 28.0 24.1 8.8 30 10.6 NE 19 28 10 15 1010.2 1009.8 0.0
22/09:00am 26.2 22.6 8.2 32 9.8 ENE 17 26 9 14 1010.2 1009.8 0.0
22/08:30am 26.1 21.9 8.1 32 9.7 ENE 20 32 11 17 1010.3 1009.9 0.0
22/08:00am 25.2 21.7 8.7 35 9.0 ENE 17 24 9 13 1010.2 1009.8 0.0
22/07:30am 24.4 21.8 9.2 38 8.3 E 13 20 7 11 1009.8 1009.4 0.0
22/07:00am 22.9 20.8 9.7 43 7.2 ESE 11 20 6 11 1009.5 1009.1 0.0
22/06:30am 21.4 19.3 9.6 47 6.4 ESE 11 13 6 7 1009.6 1009.2 0.0
22/06:00am 20.8 18.4 10.0 50 5.9 ESE 13 17 7 9 1009.5 1009.1 0.0
22/05:30am 21.0 18.9 9.9 49 6.0 ESE 11 15 6 8 1009.4 1009.0 0.0
22/05:00am 20.4 18.3 9.9 51 5.7 SE 11 15 6 8 1009.3 1008.9 0.0
22/04:30am 20.3 18.5 9.5 50 5.8 SE 9 13 5 7 1009.3 1008.9 0.0
22/04:00am 20.4 18.5 9.0 48 6.1 SE 9 13 5 7 1009.3 1008.9 0.0
22/03:30am 21.1 18.9 9.4 47 6.3 ESE 11 13 6 7 1009.4 1009.0 0.0
22/03:00am 21.7 19.9 9.3 45 6.7 ESE 9 13 5 7 1009.9 1009.5 0.0
22/02:30am 22.6 20.4 9.4 43 7.2 ESE 11 15 6 8 1010.1 1009.7 0.0
22/02:00am 23.3 21.1 9.3 41 7.6 SE 11 17 6 9 1010.1 1009.7 0.0
22/01:30am 22.7 20.6 8.4 40 7.6 SE 9 13 5 7 1010.3 1009.9 0.0
22/01:00am 23.7 21.6 8.2 37 8.3 SE 9 11 5 6 1010.5 1010.0 0.0
22/12:30am 25.1 22.7 8.6 35 8.9 SE 11 13 6 7 1011.0 1010.5 0.0
22/12:00am 26.9 23.8 8.8 32 9.9 SE 15 20 8 11 1011.0 1010.5 0.0
 
Date/Time
EDT
Temp
°C
App
Temp
°C
Dew
Point
Rel
Hum
%
Delta-T
°C
Wind Press
QNH
hPa
Press
MSL
hPa
Rain
since 9 am
mm
Dir
 
Spd
km/h
Gust
km/h
Spd
kts
Gust
kts
21/11:30pm 28.3 24.9 7.5 27 11.2 SSE 15 22 8 12 1011.0 1010.5 0.0
21/11:00pm 27.4 24.6 5.1 24 11.5 NE 9 11 5 6 1010.8 1010.3 0.0
21/10:30pm 28.0 25.3 5.6 24 11.7 NE 9 13 5 7 1011.0 1010.5 0.0
21/10:00pm 28.4 25.9 4.6 22 12.3 NE 7 11 4 6 1010.8 1010.3 0.0
21/09:30pm 29.0 26.1 4.5 21 12.6 NE 9 11 5 6 1010.6 1010.1 0.0
21/09:00pm 28.6 27.4 4.8 22 12.3 CALM 0 0 0 0 1010.3 1009.9 0.0
21/08:30pm 31.0 29.8 4.7 19 13.8 CALM 0 0 0 0 1010.2 1009.8 0.0
21/08:00pm 32.6 29.9 2.6 15 15.3 WNW 6 7 3 4 1010.0 1009.6 0.0
21/07:30pm 32.7 31.8 6.1 19 14.4 CALM 0 2 0 1 1009.8 1009.4 0.0
21/07:00pm 33.1 30.5 3.0 15 15.5 NNW 6 11 3 6 1009.7 1009.3 0.0
21/06:30pm 33.6 30.9 2.4 14 16.0 SSE 6 9 3 5 1009.5 1009.1 0.0
21/06:00pm 33.9 30.8 3.6 15 15.9 W 9 17 5 9 1009.6 1009.2 0.0
21/05:30pm 34.2 31.4 2.9 14 16.2 NW 7 13 4 7 1009.8 1009.4 0.0
21/05:00pm 35.0 32.3 2.5 13 16.8 WSW 6 9 3 5 1010.1 1009.7 0.0
21/04:30pm 34.4 31.6 3.1 14 16.3 SW 7 13 4 7 1010.6 1010.1 0.0
21/04:00pm 35.5 31.9 4.9 15 16.5 W 13 24 7 13 1010.9 1010.4 0.0
21/03:30pm 34.3 30.9 4.0 15 16.0 N 11 30 6 16 1011.3 1010.8 0.0
21/03:00pm 34.7 30.0 3.3 14 16.4 WNW 17 28 9 15 1011.7 1011.2 0.0
21/02:30pm 34.2 30.9 4.8 16 15.7 S 11 19 6 10 1012.0 1011.5 0.0
21/02:00pm 33.3 30.3 4.1 16 15.3 NNW 9 15 5 8 1012.4 1011.9 0.0
21/01:30pm 34.2 31.3 4.8 16 15.7 WSW 9 15 5 8 1012.9 1012.4 0.0
21/01:00pm 33.6 29.7 5.2 17 15.2 NW 15 28 8 15 1013.3 1012.8 0.0
21/12:30pm 32.4 28.8 6.6 20 14.0 NW 15 28 8 15 1013.8 1013.3 0.0
21/12:00pm 31.5 27.8 6.5 21 13.5 N 15 24 8 13 1014.1 1013.7 0.0
21/11:30am 30.2 26.7 7.4 24 12.4 N 15 20 8 11 1014.3 1013.9 0.0
21/11:00am 28.7 25.4 7.9 27 11.3 N 15 26 8 14 1014.5 1014.1 0.0
21/10:30am 28.2 25.0 8.5 29 10.8 N 15 20 8 11 1014.6 1014.2 0.0
21/10:00am 26.4 23.4 9.3 34 9.4 NNE 15 26 8 14 1014.5 1014.1 0.0
21/09:30am 25.0 21.6 9.3 37 8.6 NE 17 22 9 12 1014.7 1014.3 0.0
21/09:00am 24.1 20.9 8.5 37 8.4 NE 15 22 8 12 1014.6 1014.2 0.0
21/08:30am 23.3 19.8 8.6 39 7.9 NE 17 22 9 12 1014.7 1014.3 0.0
21/08:00am 21.8 19.2 9.3 45 6.7 ENE 13 19 7 10 1014.5 1014.1 0.0
21/07:30am 20.7 19.4 9.9 50 5.8 E 7 13 4 7 1014.3 1013.9 0.0
21/07:00am 17.8 16.6 9.4 58 4.4 ESE 6 7 3 4 1014.2 1013.8 0.0
21/06:30am 15.8 15.5 8.8 63 3.6 CALM 0 0 0 0 1014.4 1014.0 0.0
21/06:00am 15.7 14.9 8.2 61 3.8 E 2 6 1 3 1014.3 1013.9 0.0
21/05:30am 17.1 15.6 9.0 59 4.2 E 7 7 4 4 1013.8 1013.3 0.0
21/05:00am 17.9 16.4 9.3 57 4.5 ENE 7 9 4 5 1013.7 1013.2 0.0
21/04:30am 18.4 16.6 9.5 56 4.7 ENE 9 17 5 9 1013.4 1012.9 0.0
21/04:00am 18.0 16.1 9.1 56 4.7 ESE 9 13 5 7 1013.3 1012.8 0.0
21/03:30am 18.1 16.5 8.9 55 4.8 ENE 7 9 4 5 1013.4 1012.9 0.0
21/03:00am 18.5 16.9 8.7 53 5.1 E 7 9 4 5 1013.7 1013.2 0.0
21/02:30am 19.0 17.1 8.9 52 5.3 ESE 9 13 5 7 1014.1 1013.7 0.0
21/02:00am 19.8 18.3 9.1 50 5.7 E 7 11 4 6 1014.4 1014.0 0.0
21/01:30am 20.5 18.6 9.1 48 6.1 E 9 15 5 8 1014.6 1014.2 0.0
21/01:00am 21.3 18.7 9.2 46 6.5 E 13 17 7 9 1014.7 1014.3 0.0
21/12:30am 21.9 18.9 9.4 45 6.7 ESE 15 22 8 12 1014.9 1014.5 0.0
21/12:00am 21.7 19.0 7.5 40 7.4 SE 11 15 6 8 1014.9 1014.5 0.0
 
Date/Time
EDT
Temp
°C
App
Temp
°C
Dew
Point
Rel
Hum
%
Delta-T
°C
Wind Press
QNH
hPa
Press
MSL
hPa
Rain
since 9 am
mm
Dir
 
Spd
km/h
Gust
km/h
Spd
kts
Gust
kts
20/11:30pm 21.5 19.4 8.1 42 7.0 SE 9 13 5 7 1014.9 1014.5 0.0
20/11:00pm 21.9 19.5 7.0 38 7.7 SE 9 11 5 6 1014.9 1014.5 0.0
20/10:30pm 21.3 19.3 6.4 38 7.6 SSE 6 15 3 8 1014.6 1014.2 0.0
20/10:00pm 22.5 21.8 7.1 37 8.0 CALM 0 0 0 0 1014.4 1014.0 0.0
20/09:30pm 23.8 22.2 8.2 37 8.3 WSW 6 6 3 3 1014.4 1014.0 0.0
20/09:00pm 25.0 24.8 8.9 36 8.8 CALM 0 0 0 0 1014.2 1013.8 0.0
20/08:30pm 26.7 25.3 7.2 29 10.4 W 4 7 2 4 1014.2 1013.8 0.0
20/08:00pm 28.6 26.6 7.2 26 11.5 WSW 7 11 4 6 1014.1 1013.7 0.0
20/07:30pm 29.4 27.4 7.3 25 12.0 SW 7 15 4 8 1013.9 1013.5 0.0
20/07:00pm 29.5 27.2 7.4 25 12.0 S 9 17 5 9 1013.5 1013.0 0.0
20/06:30pm 29.7 27.3 7.0 24 12.3 S 9 22 5 12 1013.6 1013.1 0.0
20/06:00pm 29.8 27.0 7.1 24 12.3 SSW 11 20 6 11 1013.6 1013.1 0.0
20/05:30pm 29.8 26.7 7.1 24 12.3 SSW 13 20 7 11 1013.9 1013.5 0.0
20/05:00pm 29.0 25.7 6.4 24 12.0 SW 13 20 7 11 1014.3 1013.9 0.0
20/04:30pm 29.6 26.9 7.5 25 12.0 WSW 11 22 6 12 1014.7 1014.3 0.0
20/04:00pm 29.2 26.5 7.2 25 11.9 W 11 20 6 11 1015.1 1014.7 0.0
20/03:30pm 28.5 25.6 6.6 25 11.7 WSW 11 15 6 8 1015.6 1015.2 0.0
20/03:00pm 28.5 25.2 6.6 25 11.7 S 13 20 7 11 1016.1 1015.7 0.0
20/02:30pm 27.6 24.7 6.4 26 11.2 SW 11 20 6 11 1016.5 1016.1 0.0
20/02:00pm 26.9 24.3 6.3 27 10.8 W 9 17 5 9 1017.0 1016.6 0.0
20/01:30pm 25.9 23.4 6.5 29 10.2 SSW 9 20 5 11 1017.4 1017.0 0.0
20/01:00pm 24.6 21.5 5.4 29 9.8 W 11 24 6 13 1017.9 1017.5 0.0
20/12:30pm 23.8 21.0 5.2 30 9.4 SW 9 17 5 9 1018.4 1017.9 0.0
20/12:00pm 23.2 20.4 5.1 31 9.1 SW 9 13 5 7 1018.9 1018.4 0.0
20/11:30am 21.5 18.5 4.1 32 8.5 W 9 17 5 9 1019.0 1018.5 0.0
20/11:00am 21.5 18.8 5.4 35 8.0 N 9 17 5 9 1019.1 1018.6 0.0
20/10:30am 20.2 17.9 5.8 39 7.2 SSW 7 11 4 6 1019.5 1019.0 0.0
20/10:00am 19.1 16.8 5.6 41 6.6 WSW 7 9 4 5 1019.7 1019.2 0.0
20/09:30am 17.3 15.1 5.3 45 5.8 NE 6 9 3 5 1019.8 1019.3 0.0
20/09:00am 17.0 14.7 5.6 47 5.5 S 7 11 4 6 1019.8 1019.3 0.2
20/08:30am 16.0 13.4 5.9 51 4.9 SE 9 15 5 8 1019.4 1018.9 0.2
20/08:00am 15.6 13.4 6.1 53 4.6 SE 7 11 4 6 1019.0 1018.5 0.2
20/07:30am 14.3 12.2 5.7 56 4.1 SSE 6 7 3 4 1018.8 1018.3 0.2
20/07:00am 12.4 11.3 5.3 62 3.3 CALM 0 0 0 0 1018.5 1018.0 0.2
20/06:30am 10.2 9.0 4.8 69 2.4 CALM 0 0 0 0 1018.2 1017.8 0.2
20/06:00am 10.1 8.9 4.5 68 2.5 CALM 0 0 0 0 1018.2 1017.8 0.2
20/05:30am 10.5 9.4 5.1 69 2.5 CALM 0 0 0 0 1017.9 1017.5 0.2
20/05:00am 10.8 9.7 4.9 67 2.7 CALM 0 0 0 0 1017.8 1017.4 0.2
20/04:30am 11.3 9.0 5.0 65 2.9 SSE 6 6 3 3 1017.8 1017.4 0.2
20/04:00am 12.0 10.5 5.0 62 3.2 SSE 2 7 1 4 1017.7 1017.3 0.2
20/03:30am 12.5 10.0 5.0 60 3.5 SSE 7 9 4 5 1017.7 1017.3 0.2
20/03:00am 13.2 10.4 5.1 58 3.8 S 9 13 5 7 1018.0 1017.6 0.2
20/02:30am 13.3 10.5 5.0 57 3.9 S 9 13 5 7 1018.2 1017.8 0.2
20/02:00am 14.1 11.3 5.2 55 4.2 S 9 15 5 8 1018.4 1017.9 0.2
20/01:30am 14.7 11.5 5.2 53 4.5 S 11 17 6 9 1018.6 1018.1 0.2
20/01:00am 15.3 11.7 5.2 51 4.8 S 13 22 7 12 1018.4 1017.9 0.2
20/12:30am 16.0 11.3 5.3 49 5.1 SSE 19 26 10 14 1018.7 1018.2 0.2
20/12:00am 16.6 11.9 5.3 47 5.4 SSE 19 26 10 14 1018.7 1018.2 0.2
 
Date/Time
EDT
Temp
°C
App
Temp
°C
Dew
Point
Rel
Hum
%
Delta-T
°C
Wind Press
QNH
hPa
Press
MSL
hPa
Rain
since 9 am
mm
Dir
 
Spd
km/h
Gust
km/h
Spd
kts
Gust
kts
19/11:30pm 17.4 12.8 5.4 45 5.8 SSE 19 28 10 15 1018.7 1018.2 0.2
19/11:00pm 18.1 13.2 5.0 42 6.3 SSE 20 30 11 16 1018.7 1018.2 0.2
19/10:30pm 18.6 14.4 3.6 37 7.1 SSE 15 24 8 13 1018.4 1017.9 0.2
19/10:00pm 17.8 15.2 3.3 38 6.8 S 6 9 3 5 1017.9 1017.5 0.2
19/09:30pm 18.9 16.2 3.5 36 7.3 S 7 11 4 6 1017.7 1017.3 0.2
19/09:00pm 20.2 17.5 3.9 34 7.8 S 7 13 4 7 1017.5 1017.1 0.2
19/08:30pm 21.9 18.5 4.0 31 8.7 S 11 19 6 10 1017.4 1017.0 0.2
19/08:00pm 23.1 19.6 3.6 28 9.5 SSW 11 22 6 12 1017.0 1016.6 0.2
19/07:30pm 23.7 19.7 3.1 26 10.0 SSW 13 20 7 11 1016.8 1016.4 0.2
19/07:00pm 24.7 21.2 3.4 25 10.5 S 11 20 6 11 1016.5 1016.1 0.2
19/06:30pm 24.7 20.0 3.4 25 10.5 SW 17 28 9 15 1016.3 1015.9 0.2
19/06:00pm 24.8 20.1 2.9 24 10.7 SSW 17 24 9 13 1016.1 1015.7 0.2
19/05:30pm 24.6 19.8 2.7 24 10.6 SSW 17 28 9 15 1016.2 1015.8 0.2
19/05:00pm 24.7 20.4 3.4 25 10.5 SW 15 32 8 17 1016.3 1015.9 0.2
19/04:30pm 24.7 19.9 2.8 24 10.7 SSW 17 28 9 15 1016.4 1016.0 0.2
19/04:00pm 24.1 19.7 2.9 25 10.3 SSW 15 28 8 15 1016.6 1016.2 0.2
19/03:30pm 24.0 19.6 2.8 25 10.3 SW 15 28 8 15 1016.8 1016.4 0.2
19/03:00pm 23.9 20.0 3.2 26 10.1 S 13 24 7 13 1016.9 1016.5 0.2

Other Formats:

Comma delimited format used in spreadsheet applications
http://www.bom.gov.au/fwo/IDV60801/IDV60801.94839.axf

JavaScript Object Notation format (JSON) in row-major order
http://www.bom.gov.au/fwo/IDV60801/IDV60801.94839.json